Time;durP1;ratioP1;P1;durP2;ratioP2;P2;SDS_P1;SDS_P2;PMS_P1;PMS_P2;Temp;Humidity;BMP_temperature;BMP_pressure;BME280_temperature;BME280_humidity;BME280_pressure;Samples;Min_cycle;Max_cycle;Signal;HPM_P1;HPM_P2
2023/12/02 00:00:31;;;;;;;19.17;10.07;;;;;;;-1.07;92.20;101140.75;6078186;23;20015;-78
2023/12/02 00:02:58;;;;;;;23.70;10.98;;;;;;;-1.08;92.00;101134.78;6080764;23;20446;-79
2023/12/02 00:05:25;;;;;;;20.35;9.73;;;;;;;-1.07;92.27;101131.06;6077838;23;20019;-78
2023/12/02 00:07:52;;;;;;;19.13;9.25;;;;;;;-1.05;92.04;101128.84;6080114;23;20024;-78
2023/12/02 00:10:18;;;;;;;17.20;10.25;;;;;;;-1.04;91.92;101124.38;6077637;23;20366;-78
2023/12/02 00:12:46;;;;;;;20.33;9.77;;;;;;;-1.04;91.76;101134.84;6079400;23;20019;-78
2023/12/02 00:15:12;;;;;;;20.35;10.35;;;;;;;-1.03;91.98;101125.88;6056643;23;20019;-79
2023/12/02 00:17:39;;;;;;;17.25;9.23;;;;;;;-1.01;92.02;101121.81;6081974;23;20075;-79
2023/12/02 00:20:07;;;;;;;21.75;9.60;;;;;;;-1.02;92.17;101125.53;6059397;23;20023;-79
2023/12/02 00:22:33;;;;;;;17.50;9.32;;;;;;;-1.02;91.77;101135.25;6077777;23;20019;-79
2023/12/02 00:25:00;;;;;;;18.23;10.05;;;;;;;-1.06;91.66;101127.34;6085971;23;20016;-79
2023/12/02 00:27:26;;;;;;;16.90;8.73;;;;;;;-1.06;91.54;101126.59;6083534;23;20485;-78
2023/12/02 00:29:53;;;;;;;16.10;9.80;;;;;;;-1.04;91.53;101127.00;6078321;23;20026;-78
2023/12/02 00:32:19;;;;;;;17.45;9.50;;;;;;;-1.04;91.34;101125.13;6077865;23;20023;-78
2023/12/02 00:34:56;;;;;;;17.83;9.68;;;;;;;-1.05;91.68;101128.09;6077911;23;20039;-78
2023/12/02 00:37:23;;;;;;;18.13;9.95;;;;;;;-1.07;91.42;101115.38;6077366;23;20023;-78
2023/12/02 00:39:50;;;;;;;15.73;9.45;;;;;;;-1.09;91.66;101117.59;6092024;23;20025;-78
2023/12/02 00:42:16;;;;;;;20.40;9.38;;;;;;;-1.04;92.05;101114.69;6105946;23;20456;-78
2023/12/02 00:44:43;;;;;;;14.32;8.82;;;;;;;-1.00;91.83;101112.13;6104545;23;20025;-77
2023/12/02 00:47:10;;;;;;;17.40;9.55;;;;;;;-0.98;91.50;101119.63;6103688;23;20027;-78
2023/12/02 00:49:36;;;;;;;16.63;9.63;;;;;;;-0.98;91.72;101125.59;6106933;23;20023;-78
2023/12/02 00:52:03;;;;;;;20.77;10.70;;;;;;;-0.98;92.04;101132.69;6083915;23;20086;-78
2023/12/02 00:54:33;;;;;;;17.67;9.32;;;;;;;-0.98;91.56;101127.47;6115060;23;20023;-78
2023/12/02 00:57:00;;;;;;;20.05;10.25;;;;;;;-0.94;91.73;101129.03;6109987;23;20079;-78
2023/12/02 00:59:27;;;;;;;17.38;9.63;;;;;;;-0.95;91.90;101122.28;6107210;23;20453;-78
2023/12/02 01:01:53;;;;;;;18.70;10.13;;;;;;;-0.95;91.30;101134.59;6108393;23;20069;-78
2023/12/02 01:04:21;;;;;;;20.05;10.15;;;;;;;-0.95;91.97;101130.13;6107432;23;20019;-78
2023/12/02 01:06:47;;;;;;;19.58;9.80;;;;;;;-0.94;91.74;101123.03;6082599;23;20062;-78
2023/12/02 01:09:14;;;;;;;18.40;10.23;;;;;;;-0.93;91.62;101129.78;6105774;23;20011;-78
2023/12/02 01:11:40;;;;;;;20.27;10.30;;;;;;;-0.91;91.70;101119.72;6078576;23;20018;-78
2023/12/02 01:14:07;;;;;;;15.52;9.02;;;;;;;-0.88;91.55;101117.16;6077951;23;20019;-78
2023/12/02 01:16:34;;;;;;;14.07;8.82;;;;;;;-0.85;92.01;101123.56;6104011;23;20019;-78
2023/12/02 01:19:00;;;;;;;17.73;9.25;;;;;;;-0.79;91.64;101122.88;6105151;23;20042;-78
2023/12/02 01:21:27;;;;;;;21.33;10.52;;;;;;;-0.76;91.71;101126.66;6106848;23;20023;-78
2023/12/02 01:23:54;;;;;;;23.08;9.90;;;;;;;-0.72;91.67;101130.06;6106852;23;20021;-78
2023/12/02 01:26:20;;;;;;;20.00;10.23;;;;;;;-0.75;91.42;101138.63;6106572;23;20026;-78
2023/12/02 01:28:47;;;;;;;20.45;10.13;;;;;;;-0.77;91.77;101135.59;6106308;23;20019;-78
2023/12/02 01:31:13;;;;;;;17.60;10.10;;;;;;;-0.84;91.50;101135.50;6080176;23;20469;-77
2023/12/02 01:33:40;;;;;;;19.80;9.93;;;;;;;-0.92;91.63;101137.25;6104132;23;20441;-77
2023/12/02 01:36:11;;;;;;;20.75;10.60;;;;;;;-0.96;92.13;101146.91;6106136;23;20019;-78
2023/12/02 01:38:38;;;;;;;23.02;11.57;;;;;;;-0.99;92.12;101149.47;6105278;23;20019;-78
2023/12/02 01:41:04;;;;;;;18.52;10.10;;;;;;;-1.05;92.67;101139.31;6079310;23;20035;-78
2023/12/02 01:43:31;;;;;;;15.05;9.07;;;;;;;-1.08;92.55;101149.69;6104514;23;20019;-78
2023/12/02 01:45:58;;;;;;;21.27;11.13;;;;;;;-1.06;93.19;101148.25;6103499;23;20377;-77
2023/12/02 01:48:26;;;;;;;20.05;10.40;;;;;;;-1.08;93.29;101165.38;6103000;23;20066;-77
2023/12/02 01:50:53;;;;;;;23.63;11.25;;;;;;;-1.10;93.44;101154.53;6103522;23;20115;-78
2023/12/02 01:53:20;;;;;;;20.17;10.25;;;;;;;-1.10;93.36;101157.13;6102912;23;20085;-77
2023/12/02 01:55:47;;;;;;;23.52;10.98;;;;;;;-1.22;93.58;101150.25;6103644;23;20767;-77
2023/12/02 01:58:14;;;;;;;19.38;9.82;;;;;;;-1.23;93.88;101156.56;6103841;23;20023;-77
2023/12/02 02:00:41;;;;;;;22.23;10.68;;;;;;;-1.24;93.98;101147.22;6053979;23;20072;-77
2023/12/02 02:03:07;;;;;;;20.48;10.20;;;;;;;-1.29;94.17;101147.50;6104383;23;20018;-77
2023/12/02 02:05:34;;;;;;;20.23;10.90;;;;;;;-1.35;94.12;101147.03;6102136;23;20007;-76
2023/12/02 02:08:00;;;;;;;19.13;9.90;;;;;;;-1.42;94.07;101152.16;6077357;23;20023;-77
2023/12/02 02:10:27;;;;;;;19.05;9.63;;;;;;;-1.46;94.29;101142.75;6102421;23;20011;-77
2023/12/02 02:12:54;;;;;;;19.38;9.98;;;;;;;-1.53;94.43;101137.38;6103822;23;20882;-78
2023/12/02 02:15:21;;;;;;;21.30;10.25;;;;;;;-1.61;94.58;101154.81;6103746;23;20023;-78
2023/12/02 02:17:48;;;;;;;20.30;10.40;;;;;;;-1.60;94.84;101152.94;6057884;23;20082;-78
2023/12/02 02:20:14;;;;;;;19.90;10.23;;;;;;;-1.59;95.07;101144.75;6080766;23;20038;-78
2023/12/02 02:22:41;;;;;;;17.00;10.10;;;;;;;-1.60;94.82;101145.84;6104496;23;20031;-77
2023/12/02 02:25:07;;;;;;;19.67;10.52;;;;;;;-1.59;94.85;101155.19;6104011;23;20097;-77
2023/12/02 02:27:34;;;;;;;19.52;9.40;;;;;;;-1.61;95.24;101160.03;6102393;23;20106;-77
2023/12/02 02:30:01;;;;;;;17.90;8.77;;;;;;;-1.56;95.07;101151.13;6104109;23;20011;-78
2023/12/02 02:32:28;;;;;;;22.52;9.45;;;;;;;-1.54;95.04;101154.91;6105692;23;20026;-78
2023/12/02 02:34:54;;;;;;;20.63;9.82;;;;;;;-1.48;95.07;101158.00;6080369;23;20023;-78
2023/12/02 02:37:22;;;;;;;18.50;9.00;;;;;;;-1.46;95.00;101153.19;6056901;23;20023;-78
2023/12/02 02:39:49;;;;;;;18.38;10.00;;;;;;;-1.50;94.78;101150.50;6079393;23;20507;-78
2023/12/02 02:42:16;;;;;;;21.20;9.85;;;;;;;-1.51;95.15;101148.25;6076852;23;20022;-77
2023/12/02 02:44:42;;;;;;;16.80;8.73;;;;;;;-1.48;95.02;101150.16;6101617;23;20022;-77
2023/12/02 02:47:09;;;;;;;18.58;9.23;;;;;;;-1.46;94.86;101153.94;6102873;23;20467;-77
2023/12/02 02:49:35;;;;;;;15.00;9.18;;;;;;;-1.45;94.64;101155.44;6105176;23;20051;-77
2023/12/02 02:52:03;;;;;;;17.77;9.57;;;;;;;-1.45;94.20;101157.31;6110072;23;20015;-77
2023/12/02 02:54:29;;;;;;;20.00;9.20;;;;;;;-1.45;94.50;101158.06;6106796;23;20027;-77
2023/12/02 02:56:56;;;;;;;17.02;9.45;;;;;;;-1.41;94.74;101151.03;6114818;23;20014;-78
2023/12/02 02:59:22;;;;;;;20.20;9.75;;;;;;;-1.37;94.71;101153.72;6112695;23;20071;-78
2023/12/02 03:01:49;;;;;;;20.85;10.32;;;;;;;-1.34;94.35;101160.88;6105183;23;20019;-78
2023/12/02 03:04:16;;;;;;;18.05;9.60;;;;;;;-1.33;94.17;101159.75;6106584;23;20030;-78
2023/12/02 03:06:42;;;;;;;15.40;8.32;;;;;;;-1.30;94.06;101161.69;6083939;23;20094;-78
2023/12/02 03:09:11;;;;;;;18.13;9.43;;;;;;;-1.27;94.33;101153.16;6109452;23;20011;-78
2023/12/02 03:11:38;;;;;;;18.27;9.30;;;;;;;-1.22;93.99;101165.91;6109076;23;20015;-78
2023/12/02 03:14:06;;;;;;;18.80;9.30;;;;;;;-1.19;94.44;101164.44;6079513;23;20019;-78
2023/12/02 03:16:32;;;;;;;19.35;9.60;;;;;;;-1.20;94.36;101153.25;6104212;23;20023;-77
2023/12/02 03:19:00;;;;;;;20.13;9.30;;;;;;;-1.24;93.96;101162.91;6104835;23;20019;-77
2023/12/02 03:21:27;;;;;;;20.10;10.15;;;;;;;-1.24;93.98;101162.91;6106170;23;20456;-78
2023/12/02 03:23:56;;;;;;;16.52;9.20;;;;;;;-1.25;94.11;101155.41;6107921;23;20023;-78
2023/12/02 03:26:24;;;;;;;18.38;10.15;;;;;;;-1.26;94.51;101157.28;6107653;23;20019;-78
2023/12/02 03:28:51;;;;;;;20.33;9.13;;;;;;;-1.26;94.26;101156.53;6108168;23;20019;-78
2023/12/02 03:31:18;;;;;;;19.63;9.32;;;;;;;-1.28;94.27;101151.63;6104450;23;20011;-77
2023/12/02 03:33:45;;;;;;;22.27;10.60;;;;;;;-1.30;94.13;101151.22;6105920;23;20333;-77
2023/12/02 03:36:12;;;;;;;20.23;10.23;;;;;;;-1.38;94.63;101142.50;6104474;23;20019;-77
2023/12/02 03:38:40;;;;;;;20.00;10.45;;;;;;;-1.43;94.43;101149.88;6107019;23;20026;-77
2023/12/02 03:41:08;;;;;;;18.15;10.48;;;;;;;-1.45;94.58;101146.84;6103466;23;20019;-76
2023/12/02 03:43:35;;;;;;;22.63;10.30;;;;;;;-1.45;94.78;101144.25;6103498;23;20054;-77
2023/12/02 03:46:20;;;;;;;17.60;9.45;;;;;;;-1.46;94.89;101146.09;6103814;23;20404;-77
2023/12/02 03:48:47;;;;;;;19.02;8.85;;;;;;;-1.44;95.11;101149.13;6111101;23;20367;-77
2023/12/02 03:51:14;;;;;;;19.73;9.48;;;;;;;-1.40;95.32;101144.72;6112040;23;20011;-77
2023/12/02 03:53:41;;;;;;;18.67;9.38;;;;;;;-1.42;95.17;101141.69;6111561;23;20087;-77
2023/12/02 03:56:08;;;;;;;17.77;8.98;;;;;;;-1.46;95.37;101143.50;6086513;23;20023;-77
2023/12/02 03:58:35;;;;;;;20.10;10.07;;;;;;;-1.55;94.92;101139.59;6107049;23;20075;-77
2023/12/02 04:01:02;;;;;;;21.52;10.10;;;;;;;-1.60;95.36;101140.63;6104798;23;20017;-77
2023/12/02 04:03:28;;;;;;;18.98;9.95;;;;;;;-1.56;95.69;101135.47;6106940;23;20029;-77
2023/12/02 04:05:55;;;;;;;17.25;9.15;;;;;;;-1.55;96.27;101142.97;6102549;23;20015;-77
2023/12/02 04:08:22;;;;;;;17.00;9.57;;;;;;;-1.51;95.97;101135.19;6103780;23;20051;-77
2023/12/02 04:10:48;;;;;;;21.20;10.18;;;;;;;-1.53;96.16;101140.75;6104604;23;20047;-77
2023/12/02 04:13:15;;;;;;;21.23;10.13;;;;;;;-1.47;96.58;101149.81;6081717;23;20026;-78
2023/12/02 04:15:42;;;;;;;18.95;9.98;;;;;;;-1.42;96.50;101146.16;6104773;23;20074;-77
2023/12/02 04:18:08;;;;;;;21.45;10.98;;;;;;;-1.43;96.04;101149.88;6103057;23;20042;-77
2023/12/02 04:20:35;;;;;;;24.02;9.82;;;;;;;-1.41;96.62;101155.50;6103758;23;20078;-78
2023/12/02 04:23:01;;;;;;;21.73;9.57;;;;;;;-1.35;96.49;101160.09;6103173;23;20058;-76
2023/12/02 04:25:28;;;;;;;20.05;9.70;;;;;;;-1.36;96.22;101168.28;6076762;23;20010;-76
2023/12/02 04:27:55;;;;;;;22.25;10.68;;;;;;;-1.41;96.37;101165.97;6102624;23;20026;-77
2023/12/02 04:30:21;;;;;;;16.10;9.57;;;;;;;-1.42;96.30;101173.03;6103199;23;20019;-77
2023/12/02 04:32:48;;;;;;;18.52;9.43;;;;;;;-1.33;96.82;101169.44;6078854;23;20075;-77
2023/12/02 04:35:15;;;;;;;21.98;10.23;;;;;;;-1.24;96.74;101178.56;6104155;23;20331;-77
2023/12/02 04:37:43;;;;;;;18.90;9.75;;;;;;;-1.22;96.12;101178.97;6078680;23;20518;-77
2023/12/02 04:40:11;;;;;;;25.63;10.65;;;;;;;-1.21;96.00;101177.88;6104448;23;20963;-77
2023/12/02 04:42:39;;;;;;;19.60;10.35;;;;;;;-1.20;95.90;101189.81;6078254;23;20380;-77
2023/12/02 04:45:07;;;;;;;24.63;10.00;;;;;;;-1.23;95.93;101201.00;6103805;23;20034;-78
2023/12/02 04:47:38;;;;;;;19.33;10.00;;;;;;;-1.23;96.17;101205.47;6104503;23;20846;-78
2023/12/02 04:50:06;;;;;;;20.50;10.60;;;;;;;-1.25;96.11;101197.97;6107012;23;20015;-78
2023/12/02 04:52:32;;;;;;;19.35;9.90;;;;;;;-1.21;96.08;101211.84;6081237;23;20108;-78
2023/12/02 04:54:59;;;;;;;19.10;10.57;;;;;;;-1.16;96.14;101218.63;6106790;23;20472;-78
2023/12/02 04:57:26;;;;;;;21.65;10.30;;;;;;;-1.16;95.93;101205.56;6106077;23;20019;-78
2023/12/02 04:59:53;;;;;;;21.00;9.57;;;;;;;-1.15;95.79;101207.06;6106181;23;20023;-78
2023/12/02 05:02:20;;;;;;;19.85;10.32;;;;;;;-1.12;95.54;101208.97;6104251;23;20087;-77
2023/12/02 05:04:47;;;;;;;25.77;10.75;;;;;;;-1.08;95.70;101212.41;6104328;23;20095;-77
2023/12/02 05:07:14;;;;;;;17.75;9.98;;;;;;;-1.13;95.18;101215.31;6102671;23;20043;-77
2023/12/02 05:09:41;;;;;;;23.17;10.82;;;;;;;-1.18;95.70;101215.59;6104729;23;20018;-78
2023/12/02 05:12:08;;;;;;;19.80;10.23;;;;;;;-1.15;95.70;101213.03;6104774;23;20089;-77
2023/12/02 05:14:34;;;;;;;17.98;10.40;;;;;;;-1.15;95.26;101209.69;6104107;23;20475;-78
2023/12/02 05:17:01;;;;;;;24.00;10.93;;;;;;;-1.19;95.37;101206.25;6104562;23;20445;-77
2023/12/02 05:19:27;;;;;;;20.42;10.88;;;;;;;-1.27;94.90;101210.63;6077970;23;20022;-78
2023/12/02 05:21:54;;;;;;;20.50;10.73;;;;;;;-1.25;95.12;101220.72;6106377;23;20023;-78
2023/12/02 05:24:21;;;;;;;17.42;9.82;;;;;;;-1.27;95.10;101218.47;6107469;23;20018;-78
2023/12/02 05:26:47;;;;;;;23.67;11.38;;;;;;;-1.31;94.92;101209.03;6082117;23;20029;-78
2023/12/02 05:29:14;;;;;;;24.23;11.50;;;;;;;-1.33;95.09;101221.69;6108397;23;20011;-78
2023/12/02 05:31:41;;;;;;;22.38;10.38;;;;;;;-1.35;94.85;101228.00;6105301;23;20018;-78
2023/12/02 05:34:07;;;;;;;21.55;10.48;;;;;;;-1.37;94.87;101232.06;6105005;23;20097;-77
2023/12/02 05:36:34;;;;;;;23.38;11.40;;;;;;;-1.42;94.53;101212.22;6104717;23;20019;-77
2023/12/02 05:39:01;;;;;;;25.40;10.63;;;;;;;-1.53;95.02;101226.94;6078910;23;20485;-78
2023/12/02 05:41:28;;;;;;;23.45;10.90;;;;;;;-1.57;94.77;101230.56;6104240;23;20053;-78
2023/12/02 05:43:55;;;;;;;22.63;10.95;;;;;;;-1.59;94.92;101230.16;6104873;23;20030;-77
2023/12/02 05:46:22;;;;;;;24.58;10.93;;;;;;;-1.64;95.20;101223.38;6106358;23;20014;-77
2023/12/02 05:48:48;;;;;;;21.30;10.65;;;;;;;-1.65;95.32;101224.47;6081506;23;20045;-78
2023/12/02 05:51:15;;;;;;;23.58;10.73;;;;;;;-1.65;95.77;101221.09;6107425;23;20457;-78
2023/12/02 05:53:43;;;;;;;23.17;10.55;;;;;;;-1.71;95.41;101221.38;6081527;23;20015;-78
2023/12/02 05:56:09;;;;;;;20.08;10.45;;;;;;;-1.75;95.85;101225.78;6106782;23;20027;-78
2023/12/02 05:58:36;;;;;;;22.75;10.73;;;;;;;-1.78;96.16;101231.69;6080486;23;20026;-78
2023/12/02 06:01:02;;;;;;;22.20;10.65;;;;;;;-1.75;95.74;101235.47;6107314;23;20010;-78
2023/12/02 06:03:29;;;;;;;21.75;11.00;;;;;;;-1.75;96.01;101243.28;6106965;23;20023;-78
2023/12/02 06:05:56;;;;;;;23.98;11.02;;;;;;;-1.76;96.02;101239.16;6081742;23;20086;-78
2023/12/02 06:08:22;;;;;;;21.73;10.30;;;;;;;-1.75;95.90;101240.69;6106068;23;20011;-78
2023/12/02 06:10:50;;;;;;;27.38;10.95;;;;;;;-1.76;96.16;101245.16;6106372;23;20019;-78
2023/12/02 06:13:17;;;;;;;18.98;10.05;;;;;;;-1.80;96.58;101241.72;6079688;23;20836;-77
2023/12/02 06:15:44;;;;;;;20.42;10.07;;;;;;;-1.83;96.22;101246.84;6103110;23;20010;-78
2023/12/02 06:18:10;;;;;;;20.42;10.65;;;;;;;-1.87;95.73;101236.34;6102836;23;20124;-78
2023/12/02 06:20:37;;;;;;;23.35;10.52;;;;;;;-1.91;95.75;101234.75;6102435;23;20022;-78
2023/12/02 06:23:03;;;;;;;19.85;10.80;;;;;;;-1.98;96.20;101235.34;6077302;23;20018;-77
2023/12/02 06:25:30;;;;;;;21.23;10.13;;;;;;;-2.02;96.46;101239.78;6103981;23;20074;-77
2023/12/02 06:27:57;;;;;;;20.33;10.30;;;;;;;-2.04;96.50;101260.22;6103548;23;20022;-77
2023/12/02 06:30:24;;;;;;;18.67;10.25;;;;;;;-2.07;96.36;101253.09;6102361;23;20030;-78
2023/12/02 06:32:50;;;;;;;26.27;11.55;;;;;;;-2.11;96.20;101258.22;6078499;23;20015;-78
2023/12/02 06:35:18;;;;;;;21.73;10.10;;;;;;;-2.17;96.55;101254.34;6102861;23;20019;-78
2023/12/02 06:37:44;;;;;;;22.50;10.60;;;;;;;-2.17;96.46;101256.22;6104503;23;20026;-78
2023/12/02 06:40:12;;;;;;;20.73;10.75;;;;;;;-2.16;96.45;101255.88;6104661;23;20079;-78
2023/12/02 06:42:39;;;;;;;23.23;10.30;;;;;;;-2.17;97.01;101261.44;6106698;23;20019;-78
2023/12/02 06:45:07;;;;;;;21.73;10.45;;;;;;;-2.18;96.30;101263.28;6106873;23;20419;-78
2023/12/02 06:47:34;;;;;;;27.02;13.05;;;;;;;-2.20;96.30;101275.91;6079793;23;20042;-77
2023/12/02 06:50:01;;;;;;;27.13;12.05;;;;;;;-2.24;96.22;101280.28;6078626;23;20529;-77
2023/12/02 06:52:28;;;;;;;19.15;9.88;;;;;;;-2.26;96.47;101286.94;6104255;23;20014;-77
2023/12/02 06:54:55;;;;;;;22.77;11.13;;;;;;;-2.25;96.73;101291.06;6078078;23;20051;-77
2023/12/02 06:57:25;;;;;;;20.67;10.65;;;;;;;-2.27;96.76;101296.59;6102909;23;20449;-77
2023/12/02 06:59:51;;;;;;;24.73;10.60;;;;;;;-2.26;97.01;101302.56;6103625;23;20828;-78
2023/12/02 07:02:18;;;;;;;27.15;11.20;;;;;;;-2.27;96.76;101301.81;6104850;23;20015;-78
2023/12/02 07:04:46;;;;;;;21.70;11.25;;;;;;;-2.32;96.71;101314.34;6106518;23;20768;-78
2023/12/02 07:07:12;;;;;;;24.70;11.25;;;;;;;-2.35;96.75;101311.31;6106369;23;20023;-78
2023/12/02 07:09:39;;;;;;;29.40;11.60;;;;;;;-2.33;96.75;101315.44;6104954;23;20026;-77
2023/12/02 07:12:06;;;;;;;21.02;10.07;;;;;;;-2.34;96.91;101314.69;6078189;23;20094;-77
2023/12/02 07:14:32;;;;;;;33.05;11.35;;;;;;;-2.37;97.39;101323.94;6103696;23;20014;-77
2023/12/02 07:16:59;;;;;;;21.55;10.48;;;;;;;-2.39;97.57;101318.31;6077775;23;20150;-77
2023/12/02 07:19:25;;;;;;;26.60;11.32;;;;;;;-2.37;97.15;101320.59;6105760;23;20029;-77
2023/12/02 07:21:52;;;;;;;22.38;10.85;;;;;;;-2.39;97.44;101315.69;6107121;23;20006;-77
2023/12/02 07:24:19;;;;;;;24.98;10.88;;;;;;;-2.40;97.78;101322.00;6106569;23;20018;-77
2023/12/02 07:26:45;;;;;;;19.38;10.40;;;;;;;-2.38;97.40;101337.31;6103184;23;20076;-76
2023/12/02 07:29:12;;;;;;;23.02;11.40;;;;;;;-2.40;97.60;101334.31;6102923;23;20082;-78
2023/12/02 07:31:40;;;;;;;20.48;10.65;;;;;;;-2.45;97.75;101332.72;6083798;23;20098;-80
2023/12/02 07:34:06;;;;;;;23.60;10.27;;;;;;;-2.48;97.39;101333.38;6106578;23;20436;-77
2023/12/02 07:36:33;;;;;;;22.67;11.43;;;;;;;-2.51;97.81;101333.28;6080311;23;20102;-79
2023/12/02 07:39:02;;;;;;;25.20;12.55;;;;;;;-2.50;97.39;101346.00;6106442;23;20027;-79
2023/12/02 07:41:28;;;;;;;26.42;12.80;;;;;;;-2.46;97.99;101346.09;6105637;23;20082;-79
2023/12/02 07:43:55;;;;;;;28.73;12.98;;;;;;;-2.48;97.70;101345.66;6104392;23;20026;-76
2023/12/02 07:46:22;;;;;;;24.27;11.77;;;;;;;-2.48;98.28;101348.28;6076680;23;20021;-77
2023/12/02 07:48:48;;;;;;;24.98;11.52;;;;;;;-2.41;98.71;101349.19;6103463;23;20019;-77
2023/12/02 07:51:15;;;;;;;22.67;11.52;;;;;;;-2.42;98.45;101342.47;6103013;23;20044;-77
2023/12/02 07:53:42;;;;;;;21.52;11.38;;;;;;;-2.40;98.64;101345.47;6078049;23;20062;-78
2023/12/02 07:56:09;;;;;;;21.40;10.30;;;;;;;-2.35;98.48;101349.69;6102969;23;20019;-78
2023/12/02 07:58:36;;;;;;;21.35;9.93;;;;;;;-2.36;98.65;101346.31;6102818;23;20049;-77
2023/12/02 08:01:03;;;;;;;27.88;11.13;;;;;;;-2.36;98.79;101351.53;6104915;23;20014;-81
2023/12/02 08:03:30;;;;;;;21.40;11.32;;;;;;;-2.36;98.81;101358.59;6107038;23;20023;-78
2023/12/02 08:05:57;;;;;;;26.85;12.02;;;;;;;-2.33;99.02;101363.16;6106937;23;20063;-78
2023/12/02 08:08:23;;;;;;;23.55;11.63;;;;;;;-2.29;99.09;101373.66;6108915;23;20003;-78
2023/12/02 08:10:50;;;;;;;23.42;11.57;;;;;;;-2.28;99.71;101373.34;6080733;23;20026;-80
2023/12/02 08:13:18;;;;;;;25.25;11.02;;;;;;;-2.25;99.23;101383.09;6085286;23;20019;-78
2023/12/02 08:15:44;;;;;;;23.42;11.05;;;;;;;-2.24;99.57;101389.81;6103823;23;20489;-76
2023/12/02 08:18:11;;;;;;;27.90;11.85;;;;;;;-2.22;99.38;101386.88;6103360;23;20421;-77
2023/12/02 08:20:39;;;;;;;24.27;12.35;;;;;;;-2.22;99.49;101392.09;6077785;23;20019;-78
2023/12/02 08:23:05;;;;;;;24.95;11.88;;;;;;;-2.18;99.53;101393.72;6108287;23;20023;-78
2023/12/02 08:25:32;;;;;;;27.23;13.40;;;;;;;-2.18;99.66;101403.38;6055821;23;20787;-78
2023/12/02 08:27:59;;;;;;;25.00;12.60;;;;;;;-2.09;100.00;101403.97;6082873;23;20023;-78
2023/12/02 08:30:26;;;;;;;27.45;12.88;;;;;;;-2.04;100.00;101399.28;6082308;23;20034;-78
2023/12/02 08:32:53;;;;;;;27.02;12.70;;;;;;;-2.00;100.00;101396.75;6105614;23;20039;-78
2023/12/02 08:35:20;;;;;;;27.73;13.15;;;;;;;-1.98;100.00;101391.91;6084729;23;20071;-79
2023/12/02 08:37:47;;;;;;;25.20;12.48;;;;;;;-1.95;100.00;101398.31;6092289;23;20003;-78
2023/12/02 08:40:13;;;;;;;25.40;12.15;;;;;;;-1.96;100.00;101399.41;6110305;23;20026;-77
2023/12/02 08:42:40;;;;;;;32.65;14.02;;;;;;;-1.93;100.00;101383.09;6118729;23;19995;-80
2023/12/02 08:45:07;;;;;;;26.13;13.00;;;;;;;-1.90;100.00;101395.47;6121662;23;20023;-77
2023/12/02 08:47:33;;;;;;;27.00;13.05;;;;;;;-1.87;100.00;101397.38;6106285;23;20023;-78
2023/12/02 08:50:00;;;;;;;27.15;13.43;;;;;;;-1.85;100.00;101389.97;6108472;23;20015;-79
2023/12/02 08:52:28;;;;;;;26.10;12.50;;;;;;;-1.86;100.00;101404.13;6107703;23;20038;-80
2023/12/02 08:54:55;;;;;;;28.42;12.98;;;;;;;-1.86;100.00;101407.50;6085635;23;20018;-79
2023/12/02 08:57:22;;;;;;;27.27;12.77;;;;;;;-1.82;100.00;101408.34;6111482;23;20026;-81
2023/12/02 08:59:51;;;;;;;26.95;12.80;;;;;;;-1.80;100.00;101423.66;6112070;23;20495;-80
2023/12/02 09:02:17;;;;;;;29.27;13.27;;;;;;;-1.79;100.00;101414.72;6110552;23;20019;-79
2023/12/02 09:04:44;;;;;;;25.90;12.50;;;;;;;-1.77;100.00;101413.31;6083923;23;20050;-80
2023/12/02 09:07:11;;;;;;;29.00;13.50;;;;;;;-1.72;100.00;101414.91;6058283;23;20023;-78
2023/12/02 09:09:37;;;;;;;27.50;13.27;;;;;;;-1.67;100.00;101408.66;6079185;23;20070;-76
2023/12/02 09:12:04;;;;;;;25.77;11.93;;;;;;;-1.62;100.00;101413.63;6107824;23;20011;-76
2023/12/02 09:14:31;;;;;;;27.90;12.60;;;;;;;-1.56;100.00;101412.25;6105256;23;20086;-78
2023/12/02 09:16:58;;;;;;;31.83;13.23;;;;;;;-1.56;100.00;101413.00;6106340;23;20104;-74
2023/12/02 09:19:43;;;;;;;30.20;12.13;;;;;;;-1.52;100.00;101419.06;6083485;23;20018;-78
2023/12/02 09:22:29;;;;;;;25.20;12.80;;;;;;;-1.47;100.00;101421.41;6109045;23;20019;-79
2023/12/02 09:24:57;;;;;;;24.02;12.35;;;;;;;-1.42;100.00;101423.75;6106069;23;20057;-78
2023/12/02 09:28:05;;;;;;;26.60;12.27;;;;;;;-1.40;100.00;101431.25;6061281;23;20075;-78
2023/12/02 09:30:39;;;;;;;25.17;12.23;;;;;;;-1.40;100.00;101423.44;6082274;23;20373;-78
2023/12/02 09:33:06;;;;;;;32.25;13.80;;;;;;;-1.36;100.00;101427.63;6104678;23;20023;-77
2023/12/02 09:35:34;;;;;;;28.10;13.27;;;;;;;-1.35;100.00;101436.22;6076687;23;20855;-77
2023/12/02 09:38:02;;;;;;;28.90;13.80;;;;;;;-1.31;100.00;101434.44;6077630;23;20413;-78
2023/12/02 09:40:36;;;;;;;26.50;13.57;;;;;;;-1.26;100.00;101436.03;6101018;23;20042;-77
2023/12/02 09:43:24;;;;;;;32.95;14.30;;;;;;;-1.24;100.00;101441.69;6101784;23;20057;-76
2023/12/02 09:46:07;;;;;;;27.10;12.80;;;;;;;-1.15;100.00;101434.38;6101526;23;20019;-75
2023/12/02 09:48:43;;;;;;;26.85;12.45;;;;;;;-1.10;100.00;101440.09;6101029;23;20023;-75
2023/12/02 09:51:16;;;;;;;26.58;12.73;;;;;;;-0.99;100.00;101442.19;6076172;23;20026;-75
2023/12/02 09:54:01;;;;;;;27.73;12.25;;;;;;;-0.92;100.00;101442.31;6101398;23;20074;-76
2023/12/02 09:56:30;;;;;;;36.15;14.80;;;;;;;-0.76;100.00;101448.97;6100926;23;20015;-75
2023/12/02 09:59:28;;;;;;;34.75;14.50;;;;;;;-0.57;100.00;101440.38;6101997;23;20026;-75
2023/12/02 10:02:12;;;;;;;27.38;12.85;;;;;;;-0.47;100.00;101441.69;6101879;23;20019;-76
2023/12/02 10:05:07;;;;;;;36.33;14.13;;;;;;;-0.30;100.00;101443.84;6101247;23;20022;-76
2023/12/02 10:08:00;;;;;;;31.63;14.00;;;;;;;-0.26;99.64;101443.91;6101078;23;20098;-76
2023/12/02 10:10:52;;;;;;;31.27;14.13;;;;;;;-0.33;99.31;101441.91;6100635;23;20051;-76
2023/12/02 10:13:23;;;;;;;30.83;13.93;;;;;;;-0.34;98.75;101443.78;6086804;23;20090;-76
2023/12/02 10:15:57;;;;;;;30.75;14.18;;;;;;;-0.32;98.82;101446.03;6077479;23;20468;-76
2023/12/02 10:18:32;;;;;;;33.47;14.77;;;;;;;-0.26;98.40;101446.53;6102372;23;20078;-76
2023/12/02 10:21:03;;;;;;;26.98;12.57;;;;;;;-0.29;98.38;101442.72;6102973;23;20019;-77
2023/12/02 10:23:49;;;;;;;29.27;12.93;;;;;;;-0.31;98.45;101441.56;6101669;23;20025;-76
2023/12/02 10:26:28;;;;;;;30.13;14.23;;;;;;;-0.35;98.07;101438.88;6102494;23;20173;-77
2023/12/02 10:29:22;;;;;;;34.15;15.80;;;;;;;-0.40;98.28;101439.94;6102482;23;20453;-77
2023/12/02 10:32:26;;;;;;;31.10;14.57;;;;;;;-0.38;98.41;101442.94;6102790;23;20456;-77
2023/12/02 10:35:18;;;;;;;30.40;13.23;;;;;;;-0.39;98.20;101440.69;6103063;23;20019;-77
2023/12/02 10:37:52;;;;;;;32.45;14.10;;;;;;;-0.42;98.39;101442.16;6102041;23;20023;-77
2023/12/02 10:40:25;;;;;;;28.27;13.98;;;;;;;-0.39;98.42;101444.06;6102789;23;20023;-77
2023/12/02 10:43:04;;;;;;;33.90;14.90;;;;;;;-0.38;98.28;101431.72;6077851;23;20015;-77
2023/12/02 10:45:31;;;;;;;34.17;15.82;;;;;;;-0.28;98.70;101436.41;6102268;23;20019;-77
2023/12/02 10:47:59;;;;;;;31.20;15.10;;;;;;;-0.28;98.27;101440.88;6103770;23;20103;-77
2023/12/02 10:50:28;;;;;;;33.50;15.27;;;;;;;-0.27;98.46;101432.69;6102622;23;20015;-77
2023/12/02 10:53:03;;;;;;;30.98;14.95;;;;;;;-0.24;98.29;101431.97;6102418;23;20763;-77
2023/12/02 10:55:32;;;;;;;29.52;14.43;;;;;;;-0.18;98.49;101435.81;6101875;23;20019;-77
2023/12/02 10:58:02;;;;;;;29.88;14.73;;;;;;;-0.09;98.08;101428.50;6102966;23;20022;-76
2023/12/02 11:00:33;;;;;;;28.65;13.48;;;;;;;-0.06;97.81;101430.44;6102450;23;20098;-76
2023/12/02 11:03:06;;;;;;;32.88;13.77;;;;;;;-0.04;97.64;101417.00;6104077;23;20719;-77
2023/12/02 11:05:56;;;;;;;28.73;14.40;;;;;;;0.03;97.57;101418.94;6103928;23;20125;-76
2023/12/02 11:08:47;;;;;;;30.83;15.10;;;;;;;0.02;97.45;101431.28;6102143;23;20022;-77
2023/12/02 11:11:30;;;;;;;31.45;14.50;;;;;;;0.07;97.44;101428.38;6078994;23;20019;-77
2023/12/02 11:13:59;;;;;;;30.77;14.13;;;;;;;0.11;97.24;101428.41;6103560;23;20480;-77
2023/12/02 11:16:33;;;;;;;34.95;15.27;;;;;;;0.11;97.05;101431.78;6077967;23;20090;-77